Time;durP1;ratioP1;P1;durP2;ratioP2;P2;SDS_P1;SDS_P2;PMS_P1;PMS_P2;Temp;Humidity;BMP_temperature;BMP_pressure;BME280_temperature;BME280_humidity;BME280_pressure;Samples;Min_cycle;Max_cycle;Signal;HPM_P1;HPM_P2
2022/05/23 00:02:04;;;;;;;6.20;1.52;;;14.30;99.90;;;;;;5004570;28;20137;-75
2022/05/23 00:04:30;;;;;;;4.00;1.92;;;14.30;99.90;;;;;;5005028;28;20053;-76
2022/05/23 00:06:57;;;;;;;2.80;1.13;;;14.30;99.90;;;;;;5007102;28;20061;-75
2022/05/23 00:09:22;;;;;;;4.72;1.23;;;14.30;99.90;;;;;;5007617;28;20502;-77
2022/05/23 00:11:48;;;;;;;7.53;1.17;;;14.30;99.90;;;;;;5013152;28;20693;-76
2022/05/23 00:14:15;;;;;;;2.92;0.90;;;14.20;99.90;;;;;;5013499;28;20386;-75
2022/05/23 00:16:43;;;;;;;3.33;1.40;;;14.20;99.90;;;;;;5008715;28;20045;-75
2022/05/23 00:19:10;;;;;;;3.00;1.38;;;14.20;99.90;;;;;;5008235;28;20060;-76
2022/05/23 00:21:37;;;;;;;8.95;2.45;;;14.20;99.90;;;;;;5013433;28;20500;-75
2022/05/23 00:24:03;;;;;;;4.32;1.27;;;14.20;99.90;;;;;;5012600;28;20121;-77
2022/05/23 00:26:29;;;;;;;3.50;1.38;;;14.10;99.90;;;;;;5011198;28;20046;-75
2022/05/23 00:28:55;;;;;;;6.18;1.40;;;14.10;99.90;;;;;;5013801;28;20045;-77
2022/05/23 00:31:20;;;;;;;3.47;0.90;;;14.10;99.90;;;;;;5011872;28;20049;-74
2022/05/23 00:36:41;;;;;;;8.75;2.17;;;14.10;99.90;;;;;;4992029;28;20050;-74
2022/05/23 00:39:06;;;;;;;3.58;1.08;;;14.10;99.90;;;;;;5011801;28;20084;-73
2022/05/23 00:44:30;;;;;;;5.28;1.15;;;14.10;99.90;;;;;;5010823;28;20046;-75
2022/05/23 00:47:02;;;;;;;5.40;1.75;;;14.10;99.90;;;;;;5012141;28;20053;-75
2022/05/23 00:49:32;;;;;;;2.95;1.65;;;14.00;99.90;;;;;;5010761;28;20045;-76
2022/05/23 00:52:03;;;;;;;3.45;0.80;;;14.00;99.90;;;;;;5011586;28;20034;-75
2022/05/23 00:54:38;;;;;;;4.28;1.48;;;14.00;99.90;;;;;;5013217;28;20033;-75
2022/05/23 00:57:07;;;;;;;5.97;1.45;;;14.00;99.90;;;;;;5011650;28;20094;-77
2022/05/23 00:59:34;;;;;;;6.70;1.90;;;14.00;99.90;;;;;;5011582;28;20195;-76
2022/05/23 01:02:03;;;;;;;4.82;1.83;;;14.00;99.90;;;;;;5012124;28;20042;-76
2022/05/23 01:04:32;;;;;;;9.00;1.35;;;14.00;99.90;;;;;;5011137;28;20081;-76
2022/05/23 01:06:58;;;;;;;2.03;0.93;;;14.00;99.90;;;;;;5006779;28;20483;-76
2022/05/23 01:09:25;;;;;;;3.17;1.25;;;14.00;99.90;;;;;;5005946;28;20053;-76
2022/05/23 01:11:53;;;;;;;2.42;1.10;;;13.90;99.90;;;;;;5006193;28;20050;-75
2022/05/23 01:14:20;;;;;;;2.83;1.25;;;13.90;99.90;;;;;;5005648;28;20109;-75
2022/05/23 01:16:46;;;;;;;3.50;1.15;;;13.90;99.90;;;;;;5006947;28;20041;-75
2022/05/23 01:19:12;;;;;;;4.50;1.33;;;13.90;99.90;;;;;;5005445;28;20042;-74
2022/05/23 01:21:58;;;;;;;3.45;1.50;;;13.80;99.90;;;;;;5006191;28;20066;-76
2022/05/23 01:24:28;;;;;;;9.32;2.00;;;13.80;99.90;;;;;;5005676;28;20411;-75
2022/05/23 01:26:56;;;;;;;4.80;1.23;;;13.80;99.90;;;;;;5006109;28;20050;-75
2022/05/23 01:29:22;;;;;;;4.07;1.30;;;13.80;99.90;;;;;;5006142;28;20038;-76
2022/05/23 01:31:47;;;;;;;2.17;0.90;;;13.80;99.90;;;;;;5005978;28;20535;-75
2022/05/23 01:34:13;;;;;;;4.10;1.63;;;13.80;99.90;;;;;;5005673;28;20038;-75
2022/05/23 01:36:38;;;;;;;2.88;1.38;;;13.90;99.90;;;;;;5005846;28;20045;-75
2022/05/23 01:39:04;;;;;;;3.38;1.13;;;13.80;99.90;;;;;;5005900;28;20516;-75
2022/05/23 01:41:29;;;;;;;6.70;2.38;;;13.80;99.90;;;;;;5005992;28;20044;-75
2022/05/23 01:43:55;;;;;;;3.20;0.98;;;13.80;99.90;;;;;;5005697;28;20396;-76
2022/05/23 01:46:21;;;;;;;4.30;1.25;;;13.80;99.90;;;;;;5005560;28;20045;-74
2022/05/23 01:48:46;;;;;;;3.33;1.45;;;13.70;99.90;;;;;;5003455;28;20541;-74
2022/05/23 01:51:13;;;;;;;5.05;1.42;;;13.70;99.90;;;;;;5013219;22;20053;-73
2022/05/23 01:53:38;;;;;;;5.63;1.60;;;13.70;99.90;;;;;;4985932;28;20547;-74
2022/05/23 01:56:05;;;;;;;5.82;1.13;;;13.70;99.90;;;;;;4985696;28;20038;-76
2022/05/23 02:01:17;;;;;;;3.20;1.27;;;13.70;99.90;;;;;;4986243;28;20050;-74
2022/05/23 02:03:44;;;;;;;6.55;2.45;;;13.60;99.90;;;;;;4985394;28;20112;-73
2022/05/23 02:06:11;;;;;;;2.60;1.00;;;13.60;99.90;;;;;;4985954;28;20053;-74
2022/05/23 02:08:36;;;;;;;6.65;1.30;;;13.60;99.90;;;;;;4985834;28;20054;-75
2022/05/23 02:11:03;;;;;;;8.70;2.35;;;13.50;99.90;;;;;;4985656;28;20052;-74
2022/05/23 02:13:35;;;;;;;4.43;1.42;;;13.60;99.90;;;;;;4985970;28;20097;-75
2022/05/23 02:16:00;;;;;;;4.18;1.38;;;13.50;99.90;;;;;;4985668;28;20050;-74
2022/05/23 02:18:27;;;;;;;2.78;1.30;;;13.50;99.90;;;;;;4984645;28;20066;-75
2022/05/23 02:20:53;;;;;;;5.82;1.70;;;13.50;99.90;;;;;;4985398;28;20126;-76
2022/05/23 02:23:19;;;;;;;5.30;1.58;;;13.50;99.90;;;;;;4985915;28;20467;-75
2022/05/23 02:25:45;;;;;;;5.35;1.40;;;13.50;99.90;;;;;;4987986;28;20112;-74
2022/05/23 02:28:11;;;;;;;3.05;1.52;;;13.50;99.90;;;;;;4989215;28;20602;-76
2022/05/23 02:30:38;;;;;;;2.72;1.38;;;13.40;99.90;;;;;;4989262;28;20054;-75
2022/05/23 02:33:03;;;;;;;4.18;1.40;;;13.40;99.90;;;;;;4988097;28;20105;-74
2022/05/23 02:35:29;;;;;;;2.92;1.20;;;13.30;99.90;;;;;;4988834;28;20424;-74
2022/05/23 02:37:55;;;;;;;2.90;1.88;;;13.30;99.90;;;;;;4989110;28;20042;-75
2022/05/23 02:40:21;;;;;;;4.00;1.83;;;13.20;99.90;;;;;;4988667;28;20488;-74
2022/05/23 02:42:47;;;;;;;3.95;1.20;;;13.10;99.90;;;;;;4988920;28;20125;-75
2022/05/23 02:45:12;;;;;;;3.55;1.35;;;13.10;99.90;;;;;;4988159;28;20057;-76
2022/05/23 02:47:39;;;;;;;3.47;1.35;;;13.00;99.90;;;;;;4988600;28;20081;-75
2022/05/23 02:50:06;;;;;;;3.63;1.48;;;13.00;99.90;;;;;;4988804;28;20096;-76
2022/05/23 02:52:32;;;;;;;2.85;1.48;;;12.90;99.90;;;;;;4988828;28;20122;-76
2022/05/23 02:54:58;;;;;;;3.33;1.20;;;12.90;99.90;;;;;;4988187;28;20602;-75
2022/05/23 02:57:23;;;;;;;5.60;1.60;;;12.90;99.90;;;;;;4987052;28;20049;-74
2022/05/23 02:59:49;;;;;;;3.05;1.40;;;12.90;99.90;;;;;;4989000;28;20398;-74
2022/05/23 03:04:59;;;;;;;8.10;2.10;;;12.70;99.90;;;;;;4988144;28;20142;-74
2022/05/23 03:07:24;;;;;;;2.67;1.35;;;12.70;99.90;;;;;;4988282;28;20081;-75
2022/05/23 03:09:50;;;;;;;4.57;2.03;;;12.70;99.90;;;;;;4988535;28;20390;-75
2022/05/23 03:12:16;;;;;;;4.82;1.83;;;12.70;99.90;;;;;;4988984;28;20481;-75
2022/05/23 03:14:41;;;;;;;3.00;1.42;;;12.70;99.90;;;;;;4988343;28;20148;-74
2022/05/23 03:17:08;;;;;;;2.33;1.83;;;12.50;99.90;;;;;;4988990;28;20129;-74
2022/05/23 03:19:38;;;;;;;5.15;1.58;;;12.50;99.90;;;;;;4987551;28;20054;-74
2022/05/23 03:27:36;;;;;;;4.50;1.70;;;12.50;99.90;;;;;;4988350;28;20460;-76
2022/05/23 03:30:04;;;;;;;3.83;1.70;;;12.60;99.90;;;;;;4986851;28;20092;-75
2022/05/23 03:32:29;;;;;;;3.17;1.52;;;12.60;99.90;;;;;;4986673;28;20070;-76
2022/05/23 03:34:55;;;;;;;4.90;1.50;;;12.60;99.90;;;;;;4987484;28;20050;-76
2022/05/23 03:37:21;;;;;;;6.05;2.65;;;12.70;99.90;;;;;;4986192;28;20046;-75
2022/05/23 03:39:47;;;;;;;6.53;2.75;;;12.60;99.90;;;;;;4986559;28;20085;-75
2022/05/23 03:42:13;;;;;;;6.45;2.70;;;12.70;99.90;;;;;;4987829;28;20081;-74
2022/05/23 03:44:39;;;;;;;6.00;2.45;;;12.70;99.90;;;;;;4987814;28;20061;-73
2022/05/23 03:47:05;;;;;;;4.68;2.00;;;12.80;99.90;;;;;;4987655;28;20042;-75
2022/05/23 03:49:32;;;;;;;5.10;2.30;;;12.80;99.90;;;;;;4986990;28;20397;-76
2022/05/23 03:51:59;;;;;;;5.97;2.13;;;12.80;99.90;;;;;;4987393;28;20081;-75
2022/05/23 03:54:25;;;;;;;3.45;2.25;;;12.80;99.90;;;;;;4987215;28;20146;-76
2022/05/23 03:56:51;;;;;;;7.10;1.70;;;12.70;99.90;;;;;;4987329;28;20041;-76
2022/05/23 03:59:17;;;;;;;6.97;2.35;;;12.70;99.90;;;;;;4987451;28;20137;-75
2022/05/23 04:01:43;;;;;;;5.15;1.92;;;12.70;99.90;;;;;;4987594;28;20046;-74
2022/05/23 04:04:08;;;;;;;5.40;1.80;;;12.70;99.90;;;;;;4985149;28;20046;-75
2022/05/23 04:06:38;;;;;;;4.90;2.47;;;12.60;99.90;;;;;;4987588;28;20035;-74
2022/05/23 04:09:04;;;;;;;6.13;2.40;;;12.60;99.90;;;;;;5001802;28;20054;-75
2022/05/23 04:11:30;;;;;;;5.45;1.90;;;12.60;99.90;;;;;;4987084;28;20053;-75
2022/05/23 04:13:55;;;;;;;6.95;2.78;;;12.50;99.90;;;;;;4987315;28;20050;-76
2022/05/23 04:16:23;;;;;;;3.53;2.22;;;12.60;99.90;;;;;;4986845;28;20121;-76
2022/05/23 04:18:49;;;;;;;3.72;1.88;;;12.50;99.90;;;;;;5000939;28;20049;-76
2022/05/23 04:21:14;;;;;;;4.95;2.55;;;12.50;99.90;;;;;;4987350;28;20417;-75
2022/05/23 04:23:40;;;;;;;2.92;1.80;;;12.60;99.90;;;;;;4986693;28;20128;-75
2022/05/23 04:26:09;;;;;;;5.28;2.65;;;12.70;99.90;;;;;;4986813;28;20049;-76
2022/05/23 04:28:36;;;;;;;6.53;2.60;;;12.70;99.90;;;;;;4987273;28;20030;-76
2022/05/23 04:31:02;;;;;;;4.50;2.25;;;12.60;99.90;;;;;;4987307;28;20433;-73
2022/05/23 04:36:13;;;;;;;3.90;1.77;;;12.60;99.90;;;;;;4991697;28;20052;-75
2022/05/23 04:38:38;;;;;;;3.05;1.95;;;12.70;99.90;;;;;;4990104;28;20070;-74
2022/05/23 04:41:07;;;;;;;6.32;2.80;;;12.70;99.90;;;;;;4990964;28;20377;-74
2022/05/23 04:43:33;;;;;;;5.30;2.22;;;12.70;99.90;;;;;;4989905;28;20610;-74
2022/05/23 04:45:59;;;;;;;4.88;2.72;;;12.80;99.90;;;;;;4990878;28;20047;-75
2022/05/23 04:51:09;;;;;;;5.72;2.83;;;12.80;99.90;;;;;;4989425;28;20054;-76
2022/05/23 04:53:35;;;;;;;5.10;2.63;;;12.90;99.90;;;;;;4989987;28;20142;-76
2022/05/23 04:56:00;;;;;;;5.82;2.40;;;12.90;99.90;;;;;;4991274;28;20098;-75
2022/05/23 04:58:27;;;;;;;4.82;3.00;;;13.00;99.90;;;;;;4987985;28;20046;-74
2022/05/23 05:00:54;;;;;;;5.28;3.38;;;13.00;99.90;;;;;;4986654;28;20046;-75
2022/05/23 05:03:20;;;;;;;9.15;2.75;;;13.00;99.90;;;;;;4984337;28;20084;-74
2022/05/23 05:05:45;;;;;;;9.57;3.80;;;13.10;99.90;;;;;;4987266;28;20437;-75
2022/05/23 05:08:12;;;;;;;5.45;2.88;;;13.10;99.90;;;;;;4987387;28;20042;-75
2022/05/23 05:10:38;;;;;;;8.00;3.47;;;13.20;99.90;;;;;;4986818;28;20530;-74
2022/05/23 05:13:04;;;;;;;4.70;2.65;;;13.20;99.90;;;;;;4986361;28;20039;-74
2022/05/23 05:15:30;;;;;;;5.45;3.35;;;13.20;99.90;;;;;;4986815;28;20465;-73
2022/05/23 05:17:56;;;;;;;2.92;2.47;;;13.20;99.90;;;;;;4985536;28;20413;-72
2022/05/23 05:20:23;;;;;;;5.38;3.05;;;13.30;99.90;;;;;;4986859;28;20042;-73
2022/05/23 05:22:50;;;;;;;6.70;3.22;;;13.30;99.90;;;;;;4986683;28;20417;-72
2022/05/23 05:25:17;;;;;;;4.82;2.65;;;13.30;99.90;;;;;;4989537;28;20050;-73
2022/05/23 05:27:43;;;;;;;5.05;2.60;;;13.30;99.90;;;;;;4990426;28;20044;-73
2022/05/23 05:30:11;;;;;;;6.28;2.53;;;13.40;99.90;;;;;;4986446;28;20412;-73
2022/05/23 05:32:43;;;;;;;5.75;3.75;;;13.50;99.90;;;;;;4985402;28;20409;-73
2022/05/23 05:35:20;;;;;;;5.40;3.17;;;13.50;99.90;;;;;;4969245;28;20500;-72
2022/05/23 05:37:51;;;;;;;7.28;3.83;;;13.60;99.90;;;;;;4986368;28;20046;-75
2022/05/23 05:40:22;;;;;;;6.88;3.80;;;13.50;99.90;;;;;;4985455;28;20408;-74
2022/05/23 05:42:53;;;;;;;3.13;2.83;;;13.60;99.90;;;;;;4986272;28;20042;-74
2022/05/23 05:45:29;;;;;;;9.05;3.88;;;13.60;99.90;;;;;;4986218;28;20086;-74
2022/05/23 05:47:55;;;;;;;10.30;4.18;;;13.70;99.90;;;;;;4985279;28;20049;-76
2022/05/23 05:50:28;;;;;;;5.30;2.90;;;13.70;99.90;;;;;;4985657;28;20346;-74
2022/05/23 05:52:58;;;;;;;5.03;2.78;;;13.70;99.90;;;;;;4985387;28;20434;-74
2022/05/23 05:55:24;;;;;;;14.18;4.50;;;13.70;99.90;;;;;;4985288;28;20050;-74
2022/05/23 05:57:50;;;;;;;9.10;3.60;;;13.80;99.90;;;;;;4985945;28;20511;-73
2022/05/23 06:00:16;;;;;;;5.28;2.95;;;13.90;99.90;;;;;;4989319;28;20418;-74
2022/05/23 06:02:43;;;;;;;7.00;2.95;;;14.00;99.90;;;;;;4989231;28;20393;-74
2022/05/23 06:05:08;;;;;;;5.90;3.30;;;14.10;99.90;;;;;;4989161;28;20043;-74
2022/05/23 06:11:23;;;;;;;5.75;2.95;;;14.20;99.90;;;;;;4989059;28;20409;-74
2022/05/23 06:13:17;;;;;;;4.75;3.25;;;14.30;99.90;;;;;;4987880;28;20046;-74
2022/05/23 06:15:43;;;;;;;6.20;3.83;;;14.30;99.90;;;;;;4989469;28;20052;-74
2022/05/23 06:18:09;;;;;;;6.32;3.60;;;14.50;99.90;;;;;;4988069;28;20428;-74
2022/05/23 06:20:35;;;;;;;6.20;3.05;;;14.60;99.90;;;;;;4988817;28;20042;-75
2022/05/23 06:23:01;;;;;;;6.00;3.25;;;14.60;99.90;;;;;;4989008;28;20042;-74
2022/05/23 06:25:27;;;;;;;6.47;3.08;;;14.70;99.90;;;;;;4988725;28;20053;-75
2022/05/23 06:27:53;;;;;;;8.73;3.33;;;14.90;99.90;;;;;;4988849;28;20038;-75
2022/05/23 06:30:19;;;;;;;6.00;3.72;;;14.90;99.90;;;;;;4988704;28;20057;-75
2022/05/23 06:32:46;;;;;;;17.33;3.95;;;14.90;99.90;;;;;;4988309;28;20053;-75
2022/05/23 06:35:12;;;;;;;12.75;4.07;;;15.00;99.90;;;;;;4988900;28;20038;-74
2022/05/23 06:37:40;;;;;;;3.40;3.10;;;15.10;99.90;;;;;;4988970;28;20054;-74
2022/05/23 06:40:08;;;;;;;6.05;2.92;;;15.20;99.90;;;;;;5003783;28;20371;-75
2022/05/23 06:42:34;;;;;;;5.20;3.67;;;15.30;99.90;;;;;;4988666;28;20046;-75
2022/05/23 06:45:01;;;;;;;7.25;4.03;;;15.30;99.90;;;;;;4987163;28;20050;-75
2022/05/23 06:47:27;;;;;;;7.10;3.75;;;15.40;99.90;;;;;;4987514;28;20092;-76
2022/05/23 06:49:53;;;;;;;6.22;3.40;;;15.40;99.90;;;;;;4988635;28;20096;-73
2022/05/23 06:52:19;;;;;;;7.45;4.20;;;15.40;99.90;;;;;;4988339;28;20122;-74
2022/05/23 06:54:45;;;;;;;6.75;3.88;;;15.50;99.90;;;;;;4989113;28;20428;-75
2022/05/23 06:57:12;;;;;;;4.68;2.97;;;15.60;99.90;;;;;;4988343;28;20046;-73
2022/05/23 06:59:37;;;;;;;5.90;3.65;;;15.80;99.90;;;;;;4988335;28;20042;-75
2022/05/23 07:02:06;;;;;;;6.40;4.38;;;15.80;99.90;;;;;;4987003;28;20042;-75
2022/05/23 07:12:45;;;;;;;6.93;3.13;;;16.00;99.90;;;;;;4988120;28;20047;-75
2022/05/23 07:15:11;;;;;;;5.22;3.33;;;16.20;99.90;;;;;;4987860;28;20465;-75
2022/05/23 07:17:37;;;;;;;9.07;4.00;;;16.30;99.90;;;;;;5002156;28;20046;-75
2022/05/23 07:20:03;;;;;;;13.02;3.17;;;16.60;99.90;;;;;;4987970;28;20046;-75
2022/05/23 07:22:29;;;;;;;8.18;3.70;;;16.80;99.90;;;;;;4987911;28;20493;-75
2022/05/23 07:24:54;;;;;;;5.60;3.45;;;17.20;99.90;;;;;;4987634;28;20045;-74
2022/05/23 07:27:25;;;;;;;3.92;2.97;;;17.90;99.90;;;;;;4987723;28;20042;-75
2022/05/23 07:29:50;;;;;;;7.88;3.30;;;18.50;99.90;;;;;;4988015;28;20042;-75
2022/05/23 07:32:16;;;;;;;9.95;4.63;;;18.80;99.90;;;;;;4987350;28;20039;-75
2022/05/23 07:34:43;;;;;;;3.22;2.45;;;19.20;99.90;;;;;;4988210;28;20413;-75
2022/05/23 07:37:09;;;;;;;8.15;3.47;;;19.60;99.90;;;;;;4987710;28;20088;-75
2022/05/23 07:39:41;;;;;;;5.13;3.20;;;19.10;99.90;;;;;;5002708;28;20082;-75
2022/05/23 07:42:07;;;;;;;13.23;4.35;;;18.80;99.90;;;;;;4987608;28;20100;-75
2022/05/23 07:44:34;;;;;;;6.68;3.53;;;18.30;99.90;;;;;;4987565;28;20053;-75
2022/05/23 07:47:00;;;;;;;13.68;3.75;;;18.10;99.90;;;;;;4986440;28;20073;-75
2022/05/23 07:49:26;;;;;;;7.72;3.10;;;18.30;99.90;;;;;;4987181;28;20192;-75
2022/05/23 07:51:55;;;;;;;4.90;4.07;;;18.10;99.90;;;;;;4986998;28;20062;-75
2022/05/23 08:02:34;;;;;;;5.25;3.55;;;19.00;99.90;;;;;;4986183;28;20466;-75
2022/05/23 08:04:59;;;;;;;11.32;4.20;;;19.10;99.90;;;;;;4987218;28;20056;-75
2022/05/23 08:07:28;;;;;;;6.97;3.60;;;18.60;99.90;;;;;;4985549;28;20508;-75
2022/05/23 08:09:55;;;;;;;8.00;4.65;;;18.80;99.90;;;;;;4985758;28;20053;-75
2022/05/23 08:12:21;;;;;;;8.65;4.78;;;18.60;99.90;;;;;;4986938;28;20042;-75
2022/05/23 08:14:47;;;;;;;7.10;4.30;;;18.70;99.90;;;;;;4987062;28;20089;-75
2022/05/23 08:17:13;;;;;;;4.03;3.10;;;18.80;99.90;;;;;;4986385;28;20050;-74
2022/05/23 08:19:39;;;;;;;10.90;4.40;;;18.90;99.90;;;;;;4986839;28;20034;-75
2022/05/23 08:22:06;;;;;;;10.98;4.28;;;19.00;99.90;;;;;;5001155;28;20076;-75
2022/05/23 08:24:33;;;;;;;11.65;4.15;;;19.10;99.90;;;;;;4985179;28;20497;-74
2022/05/23 08:26:59;;;;;;;11.32;4.40;;;19.10;99.90;;;;;;4986817;28;20058;-73
2022/05/23 08:29:25;;;;;;;10.30;4.90;;;19.10;99.90;;;;;;4986373;28;20413;-73
2022/05/23 08:31:51;;;;;;;5.93;3.75;;;19.20;99.90;;;;;;4985594;28;20046;-74
2022/05/23 08:34:16;;;;;;;10.68;4.85;;;19.10;99.90;;;;;;4986378;28;20042;-75
2022/05/23 08:36:42;;;;;;;6.93;3.53;;;19.20;99.90;;;;;;4985389;28;20046;-74
2022/05/23 08:39:08;;;;;;;7.45;3.70;;;19.30;99.90;;;;;;4986108;28;20034;-75
2022/05/23 08:41:40;;;;;;;9.43;3.88;;;19.60;99.90;;;;;;4985200;28;20132;-74
2022/05/23 08:44:36;;;;;;;8.90;4.95;;;19.70;99.90;;;;;;4985078;28;20962;-75
2022/05/23 08:47:26;;;;;;;5.07;3.92;;;20.00;99.90;;;;;;4985459;28;20053;-75
2022/05/23 08:50:03;;;;;;;9.88;4.07;;;20.30;99.90;;;;;;4986447;28;20050;-76
2022/05/23 08:52:42;;;;;;;6.82;3.72;;;20.40;99.90;;;;;;4986405;28;20067;-75
2022/05/23 08:55:21;;;;;;;7.22;4.32;;;20.60;99.90;;;;;;4985922;28;20104;-75
2022/05/23 08:58:03;;;;;;;5.57;3.97;;;20.70;99.90;;;;;;4986193;28;20042;-73
2022/05/23 09:00:41;;;;;;;13.25;4.30;;;20.70;99.90;;;;;;4986342;28;20046;-76
2022/05/23 09:03:19;;;;;;;6.03;3.60;;;21.20;99.90;;;;;;4984827;28;20784;-75
2022/05/23 09:05:52;;;;;;;12.77;4.20;;;21.30;99.90;;;;;;4986643;28;20050;-76
2022/05/23 09:08:22;;;;;;;9.77;4.38;;;21.30;99.90;;;;;;4986242;28;20448;-76
2022/05/23 09:10:58;;;;;;;7.20;4.75;;;21.30;99.90;;;;;;4985946;28;20038;-74
2022/05/23 09:13:27;;;;;;;8.82;4.15;;;21.40;99.90;;;;;;4985411;28;20506;-74
2022/05/23 09:15:59;;;;;;;6.18;3.92;;;21.50;99.90;;;;;;4985966;28;20412;-75
2022/05/23 09:18:30;;;;;;;5.95;3.58;;;21.60;99.90;;;;;;4984879;28;20057;-75
2022/05/23 09:20:59;;;;;;;7.88;4.30;;;21.70;99.90;;;;;;4985901;28;20424;-75
2022/05/23 09:23:47;;;;;;;6.73;4.53;;;21.80;99.90;;;;;;4985554;28;20042;-75
2022/05/23 09:26:26;;;;;;;5.80;3.97;;;21.70;99.90;;;;;;4986477;28;20552;-75
2022/05/23 09:28:52;;;;;;;7.15;4.38;;;22.00;99.90;;;;;;4985786;28;20548;-75
2022/05/23 09:32:03;;;;;;;4.53;3.90;;;22.00;99.90;;;;;;4985610;28;20146;-74
2022/05/23 09:34:33;;;;;;;7.28;4.30;;;21.90;99.90;;;;;;4949581;28;20616;-74
2022/05/23 09:37:02;;;;;;;11.85;5.10;;;21.70;99.90;;;;;;4967846;28;20038;-74
2022/05/23 09:39:30;;;;;;;6.88;3.97;;;21.70;99.90;;;;;;4980106;28;20457;-74
2022/05/23 09:47:50;;;;;;;8.18;4.55;;;21.90;99.90;;;;;;4988978;28;20054;-75
2022/05/23 09:50:30;;;;;;;8.77;4.28;;;21.90;99.90;;;;;;4989774;28;20057;-74
2022/05/23 09:52:57;;;;;;;4.35;3.53;;;21.90;99.90;;;;;;4989413;28;20482;-75
2022/05/23 09:55:28;;;;;;;7.85;4.45;;;22.10;99.90;;;;;;4989468;28;20054;-76
2022/05/23 09:57:59;;;;;;;6.15;3.70;;;22.10;99.90;;;;;;4989470;28;20527;-75
2022/05/23 10:00:25;;;;;;;11.05;5.07;;;22.10;99.90;;;;;;4988953;28;20089;-75
2022/05/23 10:02:59;;;;;;;6.10;4.25;;;22.20;99.90;;;;;;4987364;28;20081;-76
2022/05/23 10:05:31;;;;;;;9.25;4.38;;;22.20;99.90;;;;;;4989231;28;20420;-76
2022/05/23 10:08:07;;;;;;;8.48;3.58;;;22.20;99.90;;;;;;4989395;28;20129;-75
2022/05/23 10:10:39;;;;;;;8.70;4.47;;;22.40;99.90;;;;;;4989507;28;20065;-75
2022/05/23 10:13:29;;;;;;;11.30;4.20;;;22.40;99.90;;;;;;4989197;28;20053;-75
2022/05/23 10:15:58;;;;;;;5.55;4.05;;;22.30;99.90;;;;;;4988970;28;20042;-75
2022/05/23 10:18:31;;;;;;;6.28;3.97;;;22.60;99.90;;;;;;4987813;28;20092;-75
2022/05/23 10:20:58;;;;;;;7.35;3.90;;;22.80;99.90;;;;;;4987538;28;20054;-75
2022/05/23 10:23:30;;;;;;;6.88;4.18;;;23.10;99.90;;;;;;4987326;28;20100;-75
2022/05/23 10:26:11;;;;;;;6.88;3.65;;;23.20;99.90;;;;;;4988790;28;20086;-75
2022/05/23 10:29:03;;;;;;;4.80;3.70;;;23.30;99.90;;;;;;4988815;28;20246;-75
2022/05/23 10:31:45;;;;;;;6.80;3.15;;;23.50;99.90;;;;;;4988250;28;20053;-75
2022/05/23 10:34:22;;;;;;;5.15;2.95;;;23.80;99.90;;;;;;4989027;28;20866;-74
2022/05/23 10:36:49;;;;;;;9.52;3.80;;;23.80;99.90;;;;;;4987504;28;20034;-76
2022/05/23 10:42:16;;;;;;;8.02;3.78;;;23.80;99.90;;;;;;4988632;28;20456;-75
2022/05/23 10:44:48;;;;;;;5.03;3.03;;;23.80;99.90;;;;;;4988910;28;20424;-75
2022/05/23 10:47:41;;;;;;;6.55;3.67;;;24.10;99.90;;;;;;4987247;28;20488;-75
2022/05/23 10:50:13;;;;;;;4.43;2.25;;;24.00;99.90;;;;;;4988496;28;20053;-76
2022/05/23 10:52:47;;;;;;;4.25;2.25;;;23.90;99.90;;;;;;4987074;28;20061;-75
2022/05/23 10:55:40;;;;;;;4.43;2.90;;;23.90;99.90;;;;;;4988698;28;20050;-75
2022/05/23 10:58:29;;;;;;;7.30;3.42;;;23.90;99.90;;;;;;4988342;28;20050;-75
2022/05/23 11:01:07;;;;;;;5.97;3.40;;;23.90;99.90;;;;;;5001452;28;20050;-75
2022/05/23 11:03:43;;;;;;;6.50;3.60;;;23.80;99.90;;;;;;4986089;28;20716;-74
2022/05/23 11:06:24;;;;;;;7.85;3.15;;;23.90;99.90;;;;;;4988015;28;20074;-75
2022/05/23 11:09:03;;;;;;;6.03;1.95;;;23.90;99.90;;;;;;4988186;28;20413;-75
2022/05/23 11:11:51;;;;;;;4.10;1.50;;;24.00;99.90;;;;;;4988105;28;20068;-75
2022/05/23 11:14:54;;;;;;;7.15;1.83;;;24.40;99.90;;;;;;4988010;28;20054;-75
2022/05/23 11:17:57;;;;;;;3.53;2.00;;;24.30;99.90;;;;;;4986964;28;20551;-75
2022/05/23 11:20:34;;;;;;;5.75;2.42;;;24.40;99.90;;;;;;4986813;28;20539;-75
2022/05/23 11:23:06;;;;;;;2.85;1.48;;;24.20;99.90;;;;;;4988214;28;20084;-75
2022/05/23 11:25:36;;;;;;;2.70;1.48;;;24.40;99.90;;;;;;4987943;28;20134;-76
2022/05/23 11:34:11;;;;;;;2.92;2.10;;;24.80;99.90;;;;;;4987616;28;20086;-76
2022/05/23 11:37:42;;;;;;;3.55;1.77;;;24.60;99.90;;;;;;4987890;28;20081;-75
2022/05/23 11:39:47;;;;;;;5.35;1.90;;;24.70;99.90;;;;;;4981661;28;20386;-76
2022/05/23 11:42:15;;;;;;;5.38;2.35;;;25.00;99.90;;;;;;4988154;28;20146;-75
2022/05/23 11:44:48;;;;;;;3.25;2.08;;;24.70;99.90;;;;;;4987243;28;20050;-75
2022/05/23 11:47:25;;;;;;;2.92;1.65;;;24.70;99.90;;;;;;4986732;28;20050;-75
2022/05/23 11:50:00;;;;;;;8.25;2.72;;;24.40;99.90;;;;;;4987241;28;20058;-75
2022/05/23 11:52:40;;;;;;;8.48;3.22;;;24.10;99.90;;;;;;4969386;28;20058;-76
2022/05/23 11:55:08;;;;;;;3.42;2.00;;;24.30;99.90;;;;;;4987163;28;20046;-74
2022/05/23 11:57:40;;;;;;;2.22;2.03;;;24.50;99.90;;;;;;4987316;28;20042;-75
2022/05/23 12:00:27;;;;;;;8.95;3.25;;;24.30;99.90;;;;;;4986930;28;20050;-74
2022/05/23 12:03:22;;;;;;;4.28;2.17;;;24.10;99.90;;;;;;4985115;28;20053;-74
2022/05/23 12:06:23;;;;;;;9.25;2.80;;;24.00;99.90;;;;;;4981422;28;20497;-76
2022/05/23 12:08:57;;;;;;;4.38;2.20;;;23.70;99.90;;;;;;4987150;28;20045;-76
2022/05/23 12:11:25;;;;;;;4.13;2.75;;;23.80;99.90;;;;;;4986821;28;20056;-74
2022/05/23 12:13:52;;;;;;;2.95;2.00;;;23.90;99.90;;;;;;4985984;28;20207;-74
2022/05/23 12:16:30;;;;;;;4.38;2.45;;;24.00;99.90;;;;;;4986111;28;20089;-75
2022/05/23 12:19:26;;;;;;;5.22;2.53;;;24.00;99.90;;;;;;4985514;28;20057;-75
2022/05/23 12:21:53;;;;;;;7.07;2.00;;;24.00;99.90;;;;;;4986942;28;20077;-74
2022/05/23 12:24:24;;;;;;;2.50;2.08;;;23.90;99.90;;;;;;4986725;28;20485;-74
2022/05/23 12:26:55;;;;;;;7.68;2.00;;;23.80;99.90;;;;;;4986706;28;20078;-74
2022/05/23 12:29:34;;;;;;;4.82;2.30;;;24.00;99.90;;;;;;4986286;28;20042;-75
2022/05/23 12:32:32;;;;;;;7.10;2.58;;;23.90;99.90;;;;;;4985617;28;20054;-75
2022/05/23 12:35:05;;;;;;;4.35;3.10;;;23.90;99.90;;;;;;4985563;28;20073;-75
2022/05/23 12:37:38;;;;;;;5.68;2.63;;;23.90;99.90;;;;;;4986553;28;20042;-76
2022/05/23 12:40:14;;;;;;;5.43;2.17;;;23.90;99.90;;;;;;4986493;28;20042;-77
2022/05/23 12:42:40;;;;;;;4.85;3.25;;;23.70;99.90;;;;;;4986331;28;20109;-74
2022/05/23 12:45:24;;;;;;;3.70;1.92;;;23.80;99.90;;;;;;4986413;28;20802;-74
2022/05/23 12:47:52;;;;;;;3.75;2.20;;;23.90;99.90;;;;;;4985352;28;20054;-76
2022/05/23 12:50:57;;;;;;;5.25;3.22;;;23.70;99.90;;;;;;4986140;28;20432;-74
2022/05/23 12:54:05;;;;;;;5.18;3.03;;;23.60;99.90;;;;;;4984718;28;20062;-74
2022/05/23 12:57:12;;;;;;;7.95;2.88;;;23.60;99.90;;;;;;4986776;28;20089;-75
2022/05/23 12:59:51;;;;;;;5.03;2.58;;;23.40;99.90;;;;;;4983961;28;20104;-75
2022/05/23 13:02:31;;;;;;;5.82;2.60;;;23.20;99.90;;;;;;5000475;28;20055;-75
2022/05/23 13:05:06;;;;;;;6.88;1.98;;;23.00;99.90;;;;;;4986321;28;20053;-74
2022/05/23 13:07:54;;;;;;;4.03;2.45;;;22.80;99.90;;;;;;4986374;28;20047;-74
2022/05/23 13:10:36;;;;;;;4.25;2.20;;;22.60;99.90;;;;;;4967912;28;20050;-74
2022/05/23 13:13:19;;;;;;;4.88;2.80;;;22.50;99.90;;;;;;4985790;28;20501;-74
2022/05/23 13:15:45;;;;;;;3.47;2.55;;;22.30;99.90;;;;;;4986454;28;20038;-75
2022/05/23 13:23:45;;;;;;;5.35;3.60;;;22.10;99.90;;;;;;4985524;28;20050;-75
2022/05/23 13:26:12;;;;;;;4.90;2.95;;;22.00;99.90;;;;;;4984815;28;20043;-75
2022/05/23 13:28:43;;;;;;;4.88;2.50;;;22.10;99.90;;;;;;4986287;28;20449;-75
2022/05/23 13:31:34;;;;;;;2.90;2.35;;;22.10;99.90;;;;;;4984986;28;20051;-75
2022/05/23 13:34:00;;;;;;;5.80;3.40;;;22.20;99.90;;;;;;4985803;28;20049;-74
2022/05/23 13:36:38;;;;;;;4.50;2.50;;;22.30;99.90;;;;;;4984701;28;20046;-74
2022/05/23 13:39:09;;;;;;;3.53;2.50;;;22.50;99.90;;;;;;4985919;28;20117;-74
2022/05/23 13:41:34;;;;;;;4.78;2.22;;;22.50;99.90;;;;;;4986117;28;20101;-74
2022/05/23 13:44:00;;;;;;;5.78;2.90;;;22.60;99.90;;;;;;5000657;28;20444;-74
2022/05/23 13:46:31;;;;;;;5.32;2.50;;;22.70;99.90;;;;;;4984474;28;20121;-74
2022/05/23 13:49:22;;;;;;;4.53;2.10;;;22.70;99.90;;;;;;4985623;28;20105;-74
2022/05/23 13:52:01;;;;;;;4.85;2.53;;;22.90;99.90;;;;;;4985683;28;20125;-74
2022/05/23 13:54:40;;;;;;;4.55;3.42;;;22.90;99.90;;;;;;4985499;28;20464;-74
2022/05/23 13:57:16;;;;;;;3.70;2.50;;;22.80;99.90;;;;;;4985375;28;20481;-74
2022/05/23 13:59:48;;;;;;;4.47;2.47;;;22.80;99.90;;;;;;4985879;28;20129;-74
2022/05/23 14:02:27;;;;;;;6.68;3.08;;;22.70;99.90;;;;;;4985078;28;20046;-75
2022/05/23 14:04:54;;;;;;;4.88;2.20;;;22.70;99.90;;;;;;4985600;28;20184;-75
2022/05/23 14:07:25;;;;;;;4.60;2.78;;;22.60;99.90;;;;;;4968373;28;20449;-75